Time;durP1;ratioP1;P1;durP2;ratioP2;P2;SDS_P1;SDS_P2;PMS_P1;PMS_P2;Temp;Humidity;BMP_temperature;BMP_pressure;BME280_temperature;BME280_humidity;BME280_pressure;Samples;Min_cycle;Max_cycle;Signal;HPM_P1;HPM_P2
2021/07/08 00:02:00;;;;;;;13.05;8.52;;;;;;;;;;4872211;28;20055;-63
2021/07/08 00:04:28;;;;;;;14.00;7.38;;;;;;;;;;4902416;28;20088;-63
2021/07/08 00:06:53;;;;;;;17.88;8.40;;;;;;;;;;4893699;28;20146;-62
2021/07/08 00:09:21;;;;;;;19.70;7.55;;;;;;;;;;4893146;28;20032;-64
2021/07/08 00:11:48;;;;;;;18.50;8.73;;;;;;;;;;4894494;28;20036;-63
2021/07/08 00:14:16;;;;;;;15.95;7.72;;;;;;;;;;4891101;28;20114;-63
2021/07/08 00:16:45;;;;;;;16.80;8.88;;;;;;;;;;4891302;28;20043;-62
2021/07/08 00:19:10;;;;;;;14.50;6.55;;;;;;;;;;4905923;28;20159;-63
2021/07/08 00:21:36;;;;;;;13.05;6.47;;;;;;;;;;4905853;28;20045;-63
2021/07/08 00:24:05;;;;;;;10.65;7.05;;;;;;;;;;4893037;28;20044;-62
2021/07/08 00:26:36;;;;;;;8.90;5.72;;;;;;;;;;4891924;28;20040;-62
2021/07/08 00:29:05;;;;;;;8.32;5.32;;;;;;;;;;4890568;28;20036;-61
2021/07/08 00:31:31;;;;;;;9.93;5.95;;;;;;;;;;4894193;28;20257;-63
2021/07/08 00:34:01;;;;;;;10.48;5.88;;;;;;;;;;4889946;28;20514;-63
2021/07/08 00:36:34;;;;;;;11.77;7.25;;;;;;;;;;4887231;28;20040;-62
2021/07/08 00:39:01;;;;;;;15.40;6.22;;;;;;;;;;4891464;28;20039;-62
2021/07/08 00:41:32;;;;;;;11.50;7.15;;;;;;;;;;4891668;28;20040;-63
2021/07/08 00:44:00;;;;;;;13.27;6.90;;;;;;;;;;4892684;28;20135;-62
2021/07/08 00:46:28;;;;;;;11.57;6.60;;;;;;;;;;4889051;28;20047;-63
2021/07/08 00:48:55;;;;;;;10.50;6.03;;;;;;;;;;4893904;28;20044;-61
2021/07/08 00:51:21;;;;;;;17.50;7.53;;;;;;;;;;4893726;28;20506;-62
2021/07/08 00:53:47;;;;;;;11.73;7.20;;;;;;;;;;4904510;28;20032;-62
2021/07/08 00:56:13;;;;;;;12.43;7.30;;;;;;;;;;4888459;28;20036;-63
2021/07/08 00:58:45;;;;;;;13.18;7.20;;;;;;;;;;4891178;28;20085;-63
2021/07/08 01:01:10;;;;;;;12.05;7.50;;;;;;;;;;4906856;28;20114;-61
2021/07/08 01:03:38;;;;;;;12.15;7.60;;;;;;;;;;4893268;28;20043;-62
2021/07/08 01:06:06;;;;;;;19.40;6.97;;;;;;;;;;4903563;28;20071;-63
2021/07/08 01:08:34;;;;;;;11.38;7.45;;;;;;;;;;4889204;28;20039;-63
2021/07/08 01:11:02;;;;;;;12.38;7.18;;;;;;;;;;4877401;28;20044;-63
2021/07/08 01:13:30;;;;;;;15.77;7.53;;;;;;;;;;4889887;28;20032;-63
2021/07/08 01:15:55;;;;;;;16.13;7.03;;;;;;;;;;4878885;28;20046;-62
2021/07/08 01:18:25;;;;;;;14.50;8.63;;;;;;;;;;4890633;28;20040;-62
2021/07/08 01:20:53;;;;;;;18.48;8.05;;;;;;;;;;4892418;28;20036;-62
2021/07/08 01:23:24;;;;;;;12.15;7.82;;;;;;;;;;4891496;28;21998;-62
2021/07/08 01:25:51;;;;;;;11.68;6.88;;;;;;;;;;4906041;28;20032;-62
2021/07/08 01:28:17;;;;;;;14.15;8.68;;;;;;;;;;4889733;28;20114;-62
2021/07/08 01:30:46;;;;;;;13.77;9.25;;;;;;;;;;4907402;28;20044;-62
2021/07/08 01:33:11;;;;;;;13.07;8.07;;;;;;;;;;4904763;28;20036;-62
2021/07/08 01:35:37;;;;;;;11.57;6.88;;;;;;;;;;4891347;28;20642;-62
2021/07/08 01:38:05;;;;;;;16.25;9.05;;;;;;;;;;4874465;28;20036;-62
2021/07/08 01:40:33;;;;;;;15.43;8.85;;;;;;;;;;4893001;28;20029;-63
2021/07/08 01:42:59;;;;;;;23.25;9.63;;;;;;;;;;4890824;28;20039;-63
2021/07/08 01:45:25;;;;;;;18.65;9.35;;;;;;;;;;4903245;28;20025;-62
2021/07/08 01:47:53;;;;;;;19.15;8.68;;;;;;;;;;4890805;28;20433;-62
2021/07/08 01:50:25;;;;;;;20.17;10.90;;;;;;;;;;4890549;28;20028;-62
2021/07/08 01:52:54;;;;;;;19.92;9.25;;;;;;;;;;4891196;28;20671;-61
2021/07/08 01:55:20;;;;;;;23.95;9.82;;;;;;;;;;4890121;28;20093;-62
2021/07/08 01:57:52;;;;;;;23.60;9.65;;;;;;;;;;4890856;28;20167;-61
2021/07/08 02:00:21;;;;;;;22.83;9.73;;;;;;;;;;4904358;28;20490;-61
2021/07/08 02:02:49;;;;;;;14.93;8.63;;;;;;;;;;4890791;28;20039;-63
2021/07/08 02:05:22;;;;;;;18.50;7.57;;;;;;;;;;4891270;28;20059;-62
2021/07/08 02:07:53;;;;;;;13.75;7.43;;;;;;;;;;4891009;28;20044;-61
2021/07/08 02:10:19;;;;;;;18.33;7.65;;;;;;;;;;4891598;28;20071;-60
2021/07/08 02:12:48;;;;;;;17.65;7.40;;;;;;;;;;4892303;28;20896;-62
2021/07/08 02:15:20;;;;;;;13.93;6.95;;;;;;;;;;4878078;28;20036;-61
2021/07/08 02:17:48;;;;;;;12.50;6.63;;;;;;;;;;4891964;28;20040;-63
2021/07/08 02:20:16;;;;;;;17.55;7.18;;;;;;;;;;4893372;28;20127;-62
2021/07/08 02:22:47;;;;;;;12.98;7.28;;;;;;;;;;4890177;28;20055;-61
2021/07/08 02:25:16;;;;;;;12.63;8.02;;;;;;;;;;4889839;28;20063;-61
2021/07/08 02:27:48;;;;;;;11.75;7.45;;;;;;;;;;4891741;28;20031;-62
2021/07/08 02:30:22;;;;;;;16.92;8.00;;;;;;;;;;4892618;28;20896;-62
2021/07/08 02:32:52;;;;;;;12.88;7.20;;;;;;;;;;4891624;28;20020;-61
2021/07/08 02:35:18;;;;;;;12.77;7.40;;;;;;;;;;4891947;28;20019;-62
2021/07/08 02:37:44;;;;;;;9.07;6.10;;;;;;;;;;4891119;28;20570;-61
2021/07/08 02:40:19;;;;;;;12.85;6.55;;;;;;;;;;4892493;28;20561;-61
2021/07/08 02:42:54;;;;;;;15.05;6.75;;;;;;;;;;4873812;28;20032;-61
2021/07/08 02:45:20;;;;;;;12.35;7.35;;;;;;;;;;4892936;28;20043;-62
2021/07/08 02:47:48;;;;;;;13.27;7.57;;;;;;;;;;4903704;28;20076;-61
2021/07/08 02:50:16;;;;;;;12.55;7.30;;;;;;;;;;4893227;28;21001;-62
2021/07/08 02:52:47;;;;;;;11.00;6.95;;;;;;;;;;4892459;28;20036;-61
2021/07/08 02:55:15;;;;;;;11.13;7.32;;;;;;;;;;4891662;28;20116;-61
2021/07/08 02:57:46;;;;;;;14.27;7.38;;;;;;;;;;4890145;28;21167;-61
2021/07/08 03:00:12;;;;;;;15.48;7.10;;;;;;;;;;4891467;28;20530;-60
2021/07/08 03:02:42;;;;;;;12.32;6.60;;;;;;;;;;4876922;28;20046;-62
2021/07/08 03:05:09;;;;;;;12.88;6.70;;;;;;;;;;4891101;28;20036;-61
2021/07/08 03:07:37;;;;;;;12.27;6.57;;;;;;;;;;4888583;28;20116;-61
2021/07/08 03:10:06;;;;;;;11.68;7.20;;;;;;;;;;4891415;28;20044;-61
2021/07/08 03:12:31;;;;;;;12.63;7.38;;;;;;;;;;4888391;28;20719;-61
2021/07/08 03:15:00;;;;;;;12.98;6.82;;;;;;;;;;4903952;28;20027;-61
2021/07/08 03:17:28;;;;;;;12.73;6.47;;;;;;;;;;4891432;28;20044;-61
2021/07/08 03:19:57;;;;;;;11.35;6.03;;;;;;;;;;4903663;28;20040;-61
2021/07/08 03:22:24;;;;;;;12.43;7.05;;;;;;;;;;4893127;28;20090;-60
2021/07/08 03:24:54;;;;;;;13.32;7.15;;;;;;;;;;4854687;28;20637;-61
2021/07/08 03:27:20;;;;;;;11.07;6.85;;;;;;;;;;4889979;28;20054;-61
2021/07/08 03:29:47;;;;;;;13.40;7.78;;;;;;;;;;4892939;28;20135;-62
2021/07/08 03:32:13;;;;;;;16.08;7.63;;;;;;;;;;4889436;28;20074;-62
2021/07/08 03:34:39;;;;;;;11.57;6.93;;;;;;;;;;4904543;28;20177;-61
2021/07/08 03:37:07;;;;;;;15.50;7.15;;;;;;;;;;4890121;28;20041;-61
2021/07/08 03:39:33;;;;;;;10.48;7.07;;;;;;;;;;4892750;28;20040;-62
2021/07/08 03:41:58;;;;;;;12.88;5.70;;;;;;;;;;4880271;28;20125;-61
2021/07/08 03:44:26;;;;;;;9.45;5.57;;;;;;;;;;4894743;28;20036;-62
2021/07/08 03:46:54;;;;;;;11.75;5.13;;;;;;;;;;4894984;28;20032;-61
2021/07/08 03:49:22;;;;;;;7.10;4.95;;;;;;;;;;4891137;28;20068;-62
2021/07/08 03:51:47;;;;;;;12.10;5.25;;;;;;;;;;4896304;28;20043;-61
2021/07/08 03:54:15;;;;;;;11.10;6.18;;;;;;;;;;4910539;28;20653;-61
2021/07/08 03:56:40;;;;;;;14.13;7.30;;;;;;;;;;4883036;28;20051;-61
2021/07/08 03:59:06;;;;;;;13.35;6.78;;;;;;;;;;4895795;28;20052;-61
2021/07/08 04:01:34;;;;;;;12.95;7.43;;;;;;;;;;4895862;28;20028;-62
2021/07/08 04:04:02;;;;;;;19.58;8.38;;;;;;;;;;4897607;28;20043;-60
2021/07/08 04:06:30;;;;;;;16.67;6.55;;;;;;;;;;4911875;28;20079;-61
2021/07/08 04:08:56;;;;;;;12.70;7.13;;;;;;;;;;4894308;28;20163;-60
2021/07/08 04:11:21;;;;;;;17.95;8.93;;;;;;;;;;4882490;28;20043;-61
2021/07/08 04:13:47;;;;;;;9.70;5.07;;;;;;;;;;4896918;28;20055;-62
2021/07/08 04:16:15;;;;;;;6.88;5.07;;;;;;;;;;4911776;28;20110;-60
2021/07/08 04:18:40;;;;;;;10.43;5.38;;;;;;;;;;4893744;28;20114;-61
2021/07/08 04:21:06;;;;;;;9.07;5.75;;;;;;;;;;4909256;28;20039;-61
2021/07/08 04:23:34;;;;;;;16.90;5.93;;;;;;;;;;4875514;28;20036;-60
2021/07/08 04:26:04;;;;;;;14.65;7.25;;;;;;;;;;4912351;28;20039;-60
2021/07/08 04:28:38;;;;;;;11.55;6.60;;;;;;;;;;4908507;28;20724;-61
2021/07/08 04:31:05;;;;;;;11.75;5.20;;;;;;;;;;4896764;28;20105;-61
2021/07/08 04:33:31;;;;;;;11.32;5.72;;;;;;;;;;4880396;28;20060;-60
2021/07/08 04:35:56;;;;;;;12.18;5.85;;;;;;;;;;4896156;28;20174;-61
2021/07/08 04:38:24;;;;;;;9.23;5.70;;;;;;;;;;4911731;28;20036;-61
2021/07/08 04:40:52;;;;;;;8.55;5.47;;;;;;;;;;4895076;28;20036;-60
2021/07/08 04:43:22;;;;;;;5.20;3.83;;;;;;;;;;4895046;28;20036;-60
2021/07/08 04:45:48;;;;;;;7.78;5.22;;;;;;;;;;4895455;28;20043;-60
2021/07/08 04:48:17;;;;;;;9.73;5.30;;;;;;;;;;4896405;28;20045;-60
2021/07/08 04:50:42;;;;;;;11.20;5.40;;;;;;;;;;4896202;28;20749;-61
2021/07/08 04:53:13;;;;;;;11.10;5.05;;;;;;;;;;4890847;28;20384;-61
2021/07/08 04:55:39;;;;;;;6.75;4.55;;;;;;;;;;4894361;28;20040;-61
2021/07/08 04:58:08;;;;;;;10.93;5.07;;;;;;;;;;4891521;28;20027;-61
2021/07/08 05:00:34;;;;;;;14.25;5.90;;;;;;;;;;4878866;28;20728;-60
2021/07/08 05:03:05;;;;;;;8.43;5.20;;;;;;;;;;4891638;28;20472;-61
2021/07/08 05:05:31;;;;;;;13.05;5.03;;;;;;;;;;4893109;28;20031;-61
2021/07/08 05:07:56;;;;;;;10.52;5.38;;;;;;;;;;4894292;28;20047;-61
2021/07/08 05:10:22;;;;;;;7.15;4.30;;;;;;;;;;4890519;28;20040;-61
2021/07/08 05:12:51;;;;;;;7.80;4.32;;;;;;;;;;4902704;28;20782;-61
2021/07/08 05:15:18;;;;;;;7.18;3.95;;;;;;;;;;4893724;28;20063;-61
2021/07/08 05:17:48;;;;;;;7.53;4.47;;;;;;;;;;4891651;28;20674;-61
2021/07/08 05:20:16;;;;;;;8.13;3.95;;;;;;;;;;4892613;28;20044;-62
2021/07/08 05:22:42;;;;;;;7.55;4.07;;;;;;;;;;4891345;28;20040;-61
2021/07/08 05:25:13;;;;;;;8.85;4.55;;;;;;;;;;4890887;28;20036;-61
2021/07/08 05:27:38;;;;;;;10.73;4.50;;;;;;;;;;4889507;28;20155;-62
2021/07/08 05:30:05;;;;;;;8.80;3.90;;;;;;;;;;4892983;28;20411;-62
2021/07/08 05:32:30;;;;;;;5.15;4.07;;;;;;;;;;4873700;28;20039;-62
2021/07/08 05:34:56;;;;;;;7.05;4.13;;;;;;;;;;4890125;28;20037;-62
2021/07/08 05:37:25;;;;;;;8.55;3.75;;;;;;;;;;4894250;28;20032;-62
2021/07/08 05:39:51;;;;;;;5.75;4.00;;;;;;;;;;4892601;28;20044;-63
2021/07/08 05:42:21;;;;;;;9.07;3.17;;;;;;;;;;4892289;28;20080;-62
2021/07/08 05:44:50;;;;;;;11.00;3.67;;;;;;;;;;4890949;28;20035;-62
2021/07/08 05:47:20;;;;;;;6.40;4.00;;;;;;;;;;4892408;28;20048;-63
2021/07/08 05:49:50;;;;;;;13.93;3.92;;;;;;;;;;4906042;28;20028;-62
2021/07/08 05:52:18;;;;;;;6.95;3.75;;;;;;;;;;4891673;28;20048;-64
2021/07/08 05:54:49;;;;;;;8.25;3.92;;;;;;;;;;4891850;28;20033;-62
2021/07/08 05:57:14;;;;;;;7.60;3.60;;;;;;;;;;4905088;28;20130;-63
2021/07/08 05:59:42;;;;;;;6.90;3.85;;;;;;;;;;4889918;28;20032;-62
2021/07/08 06:02:10;;;;;;;4.95;3.88;;;;;;;;;;4905298;28;20110;-63
2021/07/08 06:04:38;;;;;;;8.27;3.78;;;;;;;;;;4891648;28;20123;-63
2021/07/08 06:07:09;;;;;;;6.30;4.07;;;;;;;;;;4891221;28;20162;-64
2021/07/08 06:09:39;;;;;;;3.50;2.92;;;;;;;;;;4906253;28;20032;-63
2021/07/08 06:12:04;;;;;;;6.32;3.38;;;;;;;;;;4884374;28;20167;-62
2021/07/08 06:14:34;;;;;;;6.15;3.33;;;;;;;;;;4890036;28;20024;-64
2021/07/08 06:17:09;;;;;;;7.80;4.43;;;;;;;;;;4889677;28;20028;-64
2021/07/08 06:19:40;;;;;;;5.57;3.47;;;;;;;;;;4886292;28;20048;-63
2021/07/08 06:22:05;;;;;;;5.93;3.83;;;;;;;;;;4892921;28;20044;-62
2021/07/08 06:24:32;;;;;;;7.00;3.42;;;;;;;;;;4888688;28;20079;-63
2021/07/08 06:27:02;;;;;;;7.53;3.50;;;;;;;;;;4891954;28;20701;-63
2021/07/08 06:29:31;;;;;;;4.30;3.33;;;;;;;;;;4889012;28;20035;-63
2021/07/08 06:32:03;;;;;;;5.18;3.65;;;;;;;;;;4893220;28;21011;-63
2021/07/08 06:34:29;;;;;;;5.95;3.70;;;;;;;;;;4892298;28;20118;-63
2021/07/08 06:36:56;;;;;;;6.70;3.65;;;;;;;;;;4904608;28;20052;-64
2021/07/08 06:39:22;;;;;;;13.48;4.05;;;;;;;;;;4892102;28;20728;-64
2021/07/08 06:41:50;;;;;;;6.05;3.38;;;;;;;;;;4891600;28;20048;-64
2021/07/08 06:44:17;;;;;;;9.00;3.67;;;;;;;;;;4868455;28;20037;-65
2021/07/08 06:46:50;;;;;;;6.65;3.20;;;;;;;;;;4893760;28;20047;-64
2021/07/08 06:49:15;;;;;;;7.30;3.42;;;;;;;;;;4889008;28;20079;-64
2021/07/08 06:51:41;;;;;;;4.05;3.25;;;;;;;;;;4905119;28;20040;-63
2021/07/08 06:54:07;;;;;;;9.27;3.53;;;;;;;;;;4873759;28;20080;-64
2021/07/08 06:56:37;;;;;;;7.65;3.10;;;;;;;;;;4891705;28;20032;-63
2021/07/08 06:59:03;;;;;;;7.13;2.78;;;;;;;;;;4886804;28;20277;-64
2021/07/08 07:01:30;;;;;;;7.40;2.50;;;;;;;;;;4888542;28;20032;-64
2021/07/08 07:03:56;;;;;;;4.55;2.33;;;;;;;;;;4901219;28;20125;-65
2021/07/08 07:06:21;;;;;;;5.90;2.83;;;;;;;;;;4892249;28;20044;-65
2021/07/08 07:08:47;;;;;;;5.22;2.75;;;;;;;;;;4889610;28;20025;-66
2021/07/08 07:11:15;;;;;;;4.40;2.58;;;;;;;;;;4889368;28;20040;-64
2021/07/08 07:13:42;;;;;;;13.82;3.38;;;;;;;;;;4887456;28;20639;-64
2021/07/08 07:16:08;;;;;;;8.43;3.00;;;;;;;;;;4869624;28;20123;-64
2021/07/08 07:18:39;;;;;;;6.43;3.00;;;;;;;;;;4871679;28;20036;-65
2021/07/08 07:21:11;;;;;;;16.50;3.25;;;;;;;;;;4904932;28;20447;-65
2021/07/08 07:23:39;;;;;;;4.60;2.13;;;;;;;;;;4956049;28;20044;-64
2021/07/08 07:26:06;;;;;;;5.72;2.70;;;;;;;;;;4891250;28;20119;-64
2021/07/08 07:28:32;;;;;;;6.85;2.53;;;;;;;;;;4889668;28;20215;-66
2021/07/08 07:31:00;;;;;;;7.20;2.58;;;;;;;;;;4890658;28;20119;-66
2021/07/08 07:33:25;;;;;;;6.60;2.63;;;;;;;;;;4901715;28;20047;-66
2021/07/08 07:35:56;;;;;;;4.28;2.33;;;;;;;;;;4891229;28;20040;-65
2021/07/08 07:38:24;;;;;;;5.63;2.80;;;;;;;;;;4888496;28;20075;-65
2021/07/08 07:40:49;;;;;;;4.80;3.10;;;;;;;;;;4876622;28;20025;-66
2021/07/08 07:43:17;;;;;;;5.70;2.22;;;;;;;;;;4888039;28;20031;-66
2021/07/08 07:45:45;;;;;;;8.57;3.05;;;;;;;;;;4904215;28;20032;-66
2021/07/08 07:48:11;;;;;;;7.65;2.53;;;;;;;;;;4890345;28;20130;-65
2021/07/08 07:50:39;;;;;;;5.05;2.33;;;;;;;;;;4891014;28;20047;-65
2021/07/08 07:53:05;;;;;;;4.55;2.53;;;;;;;;;;4891711;28;20040;-65
2021/07/08 07:55:35;;;;;;;3.38;2.15;;;;;;;;;;4888502;28;20040;-65
2021/07/08 07:58:02;;;;;;;9.85;2.65;;;;;;;;;;4888341;28;20033;-65
2021/07/08 08:00:30;;;;;;;4.82;2.10;;;;;;;;;;4890322;28;20123;-65
2021/07/08 08:02:58;;;;;;;6.35;2.45;;;;;;;;;;4890911;28;20036;-65
2021/07/08 08:10:44;;;;;;;3.28;2.25;;;;;;;;;;4891025;28;20044;-64
2021/07/08 08:13:14;;;;;;;4.17;2.33;;;;;;;;;;4900451;28;20044;-65
2021/07/08 08:15:40;;;;;;;5.85;2.55;;;;;;;;;;4870211;28;20056;-64
2021/07/08 08:18:06;;;;;;;6.47;2.55;;;;;;;;;;4890747;28;22031;-64
2021/07/08 08:20:32;;;;;;;6.20;2.60;;;;;;;;;;4889703;28;20037;-64
2021/07/08 08:23:00;;;;;;;8.93;2.53;;;;;;;;;;4888865;28;20056;-65
2021/07/08 08:25:25;;;;;;;7.25;2.65;;;;;;;;;;4889511;28;20033;-64
2021/07/08 08:27:53;;;;;;;8.18;2.65;;;;;;;;;;4893156;28;20059;-65
2021/07/08 08:30:24;;;;;;;5.95;2.60;;;;;;;;;;4892572;28;20054;-66
2021/07/08 08:32:51;;;;;;;7.72;3.15;;;;;;;;;;4875188;28;20035;-65
2021/07/08 08:35:24;;;;;;;7.68;2.83;;;;;;;;;;4891664;28;20044;-65
2021/07/08 08:37:54;;;;;;;6.20;2.53;;;;;;;;;;4892388;28;20044;-66
2021/07/08 08:40:22;;;;;;;3.40;2.00;;;;;;;;;;4894443;28;20037;-66
2021/07/08 08:43:10;;;;;;;7.75;2.40;;;;;;;;;;4891676;28;20041;-65
2021/07/08 08:45:41;;;;;;;4.88;2.10;;;;;;;;;;4894967;28;20037;-65
2021/07/08 08:48:07;;;;;;;5.47;2.08;;;;;;;;;;4893084;28;20427;-65
2021/07/08 08:50:36;;;;;;;6.80;2.17;;;;;;;;;;4892471;28;20033;-66
2021/07/08 08:53:06;;;;;;;2.90;2.17;;;;;;;;;;4892767;28;20094;-65
2021/07/08 08:55:36;;;;;;;3.55;1.60;;;;;;;;;;4893028;28;20041;-64
2021/07/08 08:58:04;;;;;;;10.07;2.10;;;;;;;;;;4891218;28;20586;-65
2021/07/08 09:00:30;;;;;;;4.22;1.90;;;;;;;;;;4907905;28;20035;-66
2021/07/08 09:03:05;;;;;;;4.18;2.10;;;;;;;;;;4903617;28;20036;-64
2021/07/08 09:05:33;;;;;;;4.63;1.85;;;;;;;;;;4903354;28;20029;-64
2021/07/08 09:08:18;;;;;;;7.38;2.38;;;;;;;;;;4891726;28;20127;-64
2021/07/08 09:10:50;;;;;;;6.53;1.98;;;;;;;;;;4892936;28;20037;-65
2021/07/08 09:13:21;;;;;;;4.55;2.10;;;;;;;;;;4887547;28;20116;-65
2021/07/08 09:15:47;;;;;;;4.90;1.90;;;;;;;;;;4893784;28;20036;-65
2021/07/08 09:18:13;;;;;;;6.45;2.00;;;;;;;;;;4908419;28;20048;-65
2021/07/08 09:20:41;;;;;;;3.13;1.77;;;;;;;;;;4893955;28;20082;-64
2021/07/08 09:23:20;;;;;;;7.22;2.17;;;;;;;;;;4893111;28;20028;-64
2021/07/08 09:25:46;;;;;;;3.20;2.15;;;;;;;;;;4892136;28;20037;-64
2021/07/08 09:28:20;;;;;;;4.60;2.35;;;;;;;;;;4890928;28;20908;-64
2021/07/08 09:30:46;;;;;;;;;;;;;;;;;;4893198;28;20040;-64
2021/07/08 09:33:35;;;;;;;4.82;2.20;;;;;;;;;;4891018;28;19932;-63
2021/07/08 09:36:12;;;;;;;4.10;2.30;;;;;;;;;;4907253;28;20574;-64
2021/07/08 09:38:38;;;;;;;6.75;2.70;;;;;;;;;;4892459;28;20052;-63
2021/07/08 09:41:06;;;;;;;5.72;2.22;;;;;;;;;;4901503;28;20094;-64
2021/07/08 09:43:32;;;;;;;10.45;2.78;;;;;;;;;;4889388;28;20083;-64
2021/07/08 09:46:00;;;;;;;4.53;2.42;;;;;;;;;;4890585;28;20162;-64
2021/07/08 09:48:26;;;;;;;5.47;2.78;;;;;;;;;;4892299;28;20048;-64
2021/07/08 09:50:52;;;;;;;4.32;2.13;;;;;;;;;;4894065;28;20393;-64
2021/07/08 09:53:23;;;;;;;7.68;2.28;;;;;;;;;;4892120;28;20086;-64
2021/07/08 09:58:49;;;;;;;4.13;2.03;;;;;;;;;;4888376;28;20052;-64
2021/07/08 10:01:19;;;;;;;5.50;2.30;;;;;;;;;;4891503;28;20044;-65
2021/07/08 10:03:45;;;;;;;3.90;2.15;;;;;;;;;;4890196;28;20040;-65
2021/07/08 10:06:16;;;;;;;6.85;2.15;;;;;;;;;;4906603;28;20032;-64
2021/07/08 10:08:45;;;;;;;5.65;2.10;;;;;;;;;;4892948;28;20083;-65
2021/07/08 10:11:14;;;;;;;4.68;2.22;;;;;;;;;;4888949;28;20451;-64
2021/07/08 10:13:44;;;;;;;2.55;1.67;;;;;;;;;;4886391;28;20047;-63
2021/07/08 10:16:12;;;;;;;4.72;1.95;;;;;;;;;;4891270;28;20490;-63
2021/07/08 10:18:41;;;;;;;3.80;1.90;;;;;;;;;;4888948;28;20384;-64
2021/07/08 10:21:11;;;;;;;7.40;2.03;;;;;;;;;;4892032;28;20043;-64
2021/07/08 10:23:40;;;;;;;4.03;1.73;;;;;;;;;;4876281;28;20033;-64
2021/07/08 10:26:06;;;;;;;3.63;1.50;;;;;;;;;;4890899;28;20024;-63
2021/07/08 10:28:40;;;;;;;6.25;2.50;;;;;;;;;;4889172;28;20038;-64
2021/07/08 10:31:15;;;;;;;6.75;2.03;;;;;;;;;;4890416;28;21263;-64
2021/07/08 10:33:41;;;;;;;3.65;1.67;;;;;;;;;;4888259;28;20036;-64
2021/07/08 10:36:06;;;;;;;6.85;1.80;;;;;;;;;;4889409;28;20114;-64
2021/07/08 10:38:35;;;;;;;5.22;1.85;;;;;;;;;;4876445;28;20696;-63
2021/07/08 10:41:07;;;;;;;4.55;2.00;;;;;;;;;;4890636;28;20123;-63
2021/07/08 10:43:36;;;;;;;5.18;1.90;;;;;;;;;;4888937;28;20102;-63
2021/07/08 10:46:03;;;;;;;5.63;1.90;;;;;;;;;;4892026;28;20036;-63
2021/07/08 10:48:37;;;;;;;4.85;1.65;;;;;;;;;;4887696;28;20527;-63
2021/07/08 10:51:04;;;;;;;3.92;1.35;;;;;;;;;;4891986;28;20055;-63
2021/07/08 10:53:34;;;;;;;4.22;1.92;;;;;;;;;;4890480;28;20492;-64
2021/07/08 10:56:00;;;;;;;3.50;1.60;;;;;;;;;;4873989;28;20373;-64
2021/07/08 10:58:40;;;;;;;3.55;1.90;;;;;;;;;;4889963;28;20036;-63
2021/07/08 11:01:11;;;;;;;5.70;1.77;;;;;;;;;;4890511;28;20095;-63
2021/07/08 11:03:43;;;;;;;4.82;2.20;;;;;;;;;;4906006;28;20139;-63
2021/07/08 11:06:23;;;;;;;5.53;1.70;;;;;;;;;;4891358;28;20155;-63
2021/07/08 11:08:55;;;;;;;4.50;1.95;;;;;;;;;;4890613;28;20036;-62
2021/07/08 11:11:24;;;;;;;2.75;1.42;;;;;;;;;;4887858;28;20035;-62
2021/07/08 11:13:54;;;;;;;3.10;1.67;;;;;;;;;;4888860;28;20075;-62
2021/07/08 11:16:41;;;;;;;2.40;1.77;;;;;;;;;;4889672;28;20028;-63
2021/07/08 11:19:11;;;;;;;6.43;1.75;;;;;;;;;;4888572;28;20036;-63
2021/07/08 11:21:49;;;;;;;4.22;1.60;;;;;;;;;;4890351;28;20167;-63
2021/07/08 11:24:22;;;;;;;5.57;1.73;;;;;;;;;;4898877;28;20101;-63
2021/07/08 11:26:53;;;;;;;7.13;1.50;;;;;;;;;;4884694;28;20036;-63
2021/07/08 11:29:38;;;;;;;3.35;1.75;;;;;;;;;;4888124;28;20036;-63
2021/07/08 11:32:21;;;;;;;4.85;1.63;;;;;;;;;;4891693;28;20039;-62
2021/07/08 11:34:56;;;;;;;3.30;1.70;;;;;;;;;;4904769;28;20068;-63
2021/07/08 11:37:29;;;;;;;3.88;1.92;;;;;;;;;;4899040;28;20158;-63
2021/07/08 11:39:59;;;;;;;2.00;1.45;;;;;;;;;;4904216;28;20060;-64
2021/07/08 11:42:28;;;;;;;4.05;2.05;;;;;;;;;;4891677;28;20139;-63
2021/07/08 11:44:56;;;;;;;5.60;1.88;;;;;;;;;;4904219;28;20064;-63
2021/07/08 11:47:22;;;;;;;3.72;1.50;;;;;;;;;;4876612;28;20937;-62
2021/07/08 11:49:48;;;;;;;7.32;1.75;;;;;;;;;;4889053;28;20121;-63
2021/07/08 11:52:17;;;;;;;1.60;1.23;;;;;;;;;;4889396;28;20028;-62
2021/07/08 11:54:57;;;;;;;3.33;1.38;;;;;;;;;;4888452;28;20046;-62
2021/07/08 11:57:25;;;;;;;3.92;1.30;;;;;;;;;;4888943;28;20036;-64
2021/07/08 11:59:54;;;;;;;2.72;1.40;;;;;;;;;;4890602;28;20024;-64
2021/07/08 12:02:32;;;;;;;1.55;0.88;;;;;;;;;;4906725;28;20047;-63
2021/07/08 12:05:14;;;;;;;3.30;1.00;;;;;;;;;;4892458;28;20039;-62
2021/07/08 12:07:41;;;;;;;1.58;1.10;;;;;;;;;;4890354;28;20035;-64
2021/07/08 12:10:09;;;;;;;3.13;1.00;;;;;;;;;;4907694;28;20039;-64
2021/07/08 12:12:37;;;;;;;4.30;1.33;;;;;;;;;;4892054;28;20027;-63
2021/07/08 12:15:05;;;;;;;3.03;0.80;;;;;;;;;;4891486;28;20050;-63
2021/07/08 12:17:34;;;;;;;1.95;1.00;;;;;;;;;;4886897;28;20162;-63
2021/07/08 12:20:08;;;;;;;3.53;0.80;;;;;;;;;;4892104;28;20078;-63
2021/07/08 12:22:36;;;;;;;2.75;1.23;;;;;;;;;;4892063;28;20062;-61
2021/07/08 12:25:16;;;;;;;1.00;0.80;;;;;;;;;;4894050;28;20047;-62
2021/07/08 12:27:44;;;;;;;1.73;0.85;;;;;;;;;;4902565;28;20037;-61
2021/07/08 12:30:23;;;;;;;4.05;1.20;;;;;;;;;;4891823;28;20032;-63
2021/07/08 12:33:03;;;;;;;2.15;1.00;;;;;;;;;;4893783;28;20040;-63
2021/07/08 12:35:44;;;;;;;3.38;1.23;;;;;;;;;;4890580;28;20076;-62
2021/07/08 12:38:16;;;;;;;1.95;0.82;;;;;;;;;;4906543;28;20044;-63
2021/07/08 12:40:47;;;;;;;1.50;0.90;;;;;;;;;;4893961;28;20096;-62
2021/07/08 12:43:18;;;;;;;1.25;1.05;;;;;;;;;;4889346;28;20032;-63
2021/07/08 12:45:46;;;;;;;2.35;1.10;;;;;;;;;;4892781;28;20729;-63
2021/07/08 12:48:15;;;;;;;3.35;1.10;;;;;;;;;;4891372;28;20082;-62
2021/07/08 12:50:42;;;;;;;1.88;1.27;;;;;;;;;;4893694;28;20051;-62
2021/07/08 12:53:14;;;;;;;2.00;0.85;;;;;;;;;;4890060;28;20158;-62
2021/07/08 12:55:52;;;;;;;1.73;0.80;;;;;;;;;;4895176;28;20035;-62
2021/07/08 12:58:22;;;;;;;2.00;0.75;;;;;;;;;;4890289;28;20074;-62
2021/07/08 13:00:52;;;;;;;2.05;0.70;;;;;;;;;;4890138;28;20046;-62
2021/07/08 13:03:25;;;;;;;4.32;0.80;;;;;;;;;;4890558;28;20032;-62
2021/07/08 13:05:54;;;;;;;0.98;0.85;;;;;;;;;;4878630;28;20028;-62
2021/07/08 13:08:22;;;;;;;3.10;0.80;;;;;;;;;;4901683;28;20045;-63
2021/07/08 13:10:52;;;;;;;1.52;1.00;;;;;;;;;;4893710;28;20032;-62
2021/07/08 13:13:32;;;;;;;1.65;0.70;;;;;;;;;;4891309;28;20032;-60
2021/07/08 13:15:58;;;;;;;1.65;0.80;;;;;;;;;;4892109;28;20646;-61
2021/07/08 13:18:28;;;;;;;2.92;0.70;;;;;;;;;;4892241;28;20587;-62
2021/07/08 13:20:53;;;;;;;1.73;1.08;;;;;;;;;;4893681;28;20162;-63
2021/07/08 13:23:21;;;;;;;1.00;0.63;;;;;;;;;;4893318;28;20076;-63
2021/07/08 13:25:50;;;;;;;1.20;0.80;;;;;;;;;;4889130;28;20032;-64
2021/07/08 13:28:31;;;;;;;1.50;0.90;;;;;;;;;;4889897;28;20611;-63
2021/07/08 13:31:05;;;;;;;1.45;0.70;;;;;;;;;;4890895;28;20106;-64
2021/07/08 13:33:37;;;;;;;1.50;0.80;;;;;;;;;;4893010;28;20059;-61
2021/07/08 13:36:22;;;;;;;0.85;0.60;;;;;;;;;;4891828;28;20044;-64
2021/07/08 13:38:50;;;;;;;1.67;0.82;;;;;;;;;;4891112;28;21070;-63
2021/07/08 13:41:19;;;;;;;1.33;0.60;;;;;;;;;;4893119;28;20066;-63
2021/07/08 13:43:53;;;;;;;0.50;0.50;;;;;;;;;;4903524;28;22041;-64
2021/07/08 13:46:33;;;;;;;2.78;0.60;;;;;;;;;;4892294;28;20094;-64
2021/07/08 13:49:14;;;;;;;1.13;0.75;;;;;;;;;;4890968;28;20036;-64
2021/07/08 13:51:43;;;;;;;2.25;0.60;;;;;;;;;;4890903;28;20059;-64
2021/07/08 13:54:08;;;;;;;1.40;0.87;;;;;;;;;;4906470;28;20037;-63
2021/07/08 13:56:34;;;;;;;1.42;0.70;;;;;;;;;;4901957;28;20044;-64
2021/07/08 13:59:04;;;;;;;1.65;0.60;;;;;;;;;;4872481;28;20961;-63
2021/07/08 14:01:32;;;;;;;2.55;0.65;;;;;;;;;;4892814;28;20116;-64
2021/07/08 14:03:58;;;;;;;3.22;0.95;;;;;;;;;;4905565;28;20028;-63
2021/07/08 14:06:26;;;;;;;1.20;0.82;;;;;;;;;;4891778;28;20757;-63
2021/07/08 14:08:54;;;;;;;5.10;0.82;;;;;;;;;;4890625;28;20040;-62
2021/07/08 14:11:29;;;;;;;1.90;0.80;;;;;;;;;;4892126;28;20036;-63
2021/07/08 14:13:57;;;;;;;4.18;1.55;;;;;;;;;;4892358;28;20964;-63
2021/07/08 14:16:28;;;;;;;3.55;2.08;;;;;;;;;;4894423;28;20110;-63
2021/07/08 14:18:54;;;;;;;2.75;1.80;;;;;;;;;;4892538;28;20043;-62
2021/07/08 14:21:25;;;;;;;5.45;2.17;;;;;;;;;;4890871;28;20036;-61
2021/07/08 14:23:51;;;;;;;5.88;1.98;;;;;;;;;;4890934;28;20035;-62
2021/07/08 14:26:19;;;;;;;3.05;1.63;;;;;;;;;;4893567;28;20187;-62
2021/07/08 14:28:52;;;;;;;3.60;2.30;;;;;;;;;;4891214;28;20082;-62
2021/07/08 14:31:17;;;;;;;3.95;1.83;;;;;;;;;;4892708;28;20036;-62
2021/07/08 14:33:45;;;;;;;5.25;2.30;;;;;;;;;;4890615;28;20537;-63
2021/07/08 14:36:16;;;;;;;3.15;1.45;;;;;;;;;;4891388;28;20078;-62
2021/07/08 14:38:42;;;;;;;4.20;2.10;;;;;;;;;;4892285;28;20028;-61
2021/07/08 14:41:11;;;;;;;3.28;2.17;;;;;;;;;;4889234;28;20031;-62
2021/07/08 14:43:49;;;;;;;6.53;2.03;;;;;;;;;;4888813;28;20032;-62
2021/07/08 14:46:16;;;;;;;3.58;2.30;;;;;;;;;;4891497;28;20035;-62
2021/07/08 14:48:47;;;;;;;4.97;2.17;;;;;;;;;;4904593;28;20123;-61
2021/07/08 14:51:15;;;;;;;3.73;2.37;;;;;;;;;;4891020;28;21934;-61
2021/07/08 14:53:45;;;;;;;7.32;2.38;;;;;;;;;;4890459;28;20143;-63
2021/07/08 14:56:13;;;;;;;7.13;2.10;;;;;;;;;;4891827;28;20043;-61
2021/07/08 14:58:41;;;;;;;3.08;1.58;;;;;;;;;;4889151;28;20037;-61